createdAt,value
2023-03-26T00:01:38.984Z,98522.38
2023-03-26T00:04:07.223Z,98527.75
2023-03-26T00:06:39.295Z,98526.13
2023-03-26T00:09:08.094Z,98531.53
2023-03-26T00:11:35.158Z,98521.81
2023-03-26T00:14:02.744Z,98515.38
2023-03-26T00:16:32.042Z,98501.91
2023-03-26T00:19:00.097Z,98494.06
2023-03-26T00:21:28.932Z,98487.84
2023-03-26T00:23:59.848Z,98485.16
2023-03-26T00:26:27.002Z,98485.75
2023-03-26T00:28:54.592Z,98478.72
2023-03-26T00:31:22.170Z,98476.84
2023-03-26T00:33:54.297Z,98467.97
2023-03-26T00:36:23.131Z,98459.88
2023-03-26T00:38:49.984Z,98456.59
2023-03-26T00:41:23.146Z,98455.78
2023-03-26T00:43:52.534Z,98455.53
2023-03-26T00:46:19.614Z,98453.66
2023-03-26T00:48:47.058Z,98448.50
2023-03-26T00:51:16.037Z,98439.63
2023-03-26T00:53:44.048Z,98431.78
2023-03-26T00:56:11.221Z,98427.72
2023-03-26T00:58:39.458Z,98426.66
2023-03-26T01:01:09.002Z,98424.75
2023-03-26T01:03:42.789Z,98418.34
2023-03-26T01:06:17.429Z,98413.41
2023-03-26T01:08:46.663Z,98401.03
2023-03-26T01:11:17.181Z,98401.03
2023-03-26T01:13:49.552Z,98384.88
2023-03-26T01:16:22.684Z,98374.91
2023-03-26T01:18:50.034Z,98369.75
2023-03-26T01:21:22.799Z,98374.09
2023-03-26T01:23:57.796Z,98361.44
2023-03-26T01:26:52.752Z,98353.34
2023-03-26T01:29:26.681Z,98340.13
2023-03-26T01:32:03.387Z,98343.88
2023-03-26T01:34:39.843Z,98327.72
2023-03-26T01:37:15.353Z,98321.56
2023-03-26T01:39:53.099Z,98312.41
2023-03-26T01:42:28.056Z,98299.75
2023-03-26T01:44:59.781Z,98310.78
2023-03-26T01:47:27.742Z,98305.63
2023-03-26T01:49:54.630Z,98309.13
2023-03-26T01:52:26.123Z,98304.81
2023-03-26T01:54:56.047Z,98303.97
2023-03-26T01:57:34.018Z,98300.50
2023-03-26T02:00:12.084Z,98303.97
2023-03-26T02:02:55.005Z,98287.03
2023-03-26T02:05:26.673Z,98285.41
2023-03-26T02:08:00.062Z,98267.84
2023-03-26T02:10:30.069Z,98272.41
2023-03-26T02:12:58.970Z,98260.81
2023-03-26T02:15:26.006Z,98258.97
2023-03-26T02:17:54.068Z,98254.38
2023-03-26T02:20:21.724Z,98239.28
2023-03-26T02:22:48.696Z,98234.97
2023-03-26T02:25:20.207Z,98226.06
2023-03-26T02:27:50.882Z,98226.31
2023-03-26T02:30:20.591Z,98226.31
2023-03-26T02:32:52.353Z,98209.38
2023-03-26T02:35:21.894Z,98212.84
2023-03-26T02:37:52.123Z,98202.09
2023-03-26T02:40:23.746Z,98191.59
2023-03-26T02:42:52.902Z,98181.84
2023-03-26T02:45:19.927Z,98165.72
2023-03-26T02:48:05.549Z,98148.75
2023-03-26T02:50:38.606Z,98146.06
2023-03-26T02:53:29.878Z,98144.19
2023-03-26T02:56:14.613Z,98147.38
2023-03-26T02:58:53.998Z,98160.84
2023-03-26T03:01:20.957Z,98165.41
2023-03-26T03:03:52.012Z,98137.41
2023-03-26T03:06:40.921Z,98129.34
2023-03-26T03:09:10.976Z,98118.03
2023-03-26T03:11:38.928Z,98116.94
2023-03-26T03:14:07.650Z,98118.56
2023-03-26T03:16:35.439Z,98128.28
2023-03-26T03:19:06.514Z,98123.41
2023-03-26T03:21:41.053Z,98114.50
2023-03-26T03:24:09.177Z,98106.44
2023-03-26T03:26:42.375Z,98108.88
2023-03-26T03:29:36.785Z,98096.50
2023-03-26T03:32:41.692Z,98083.03
2023-03-26T03:35:09.613Z,98077.66
2023-03-26T03:37:37.099Z,98065.22
2023-03-26T03:40:08.244Z,98067.66
2023-03-26T03:42:35.784Z,98052.59
2023-03-26T03:45:06.506Z,98065.22
2023-03-26T03:47:51.695Z,98058.19
2023-03-26T03:50:25.177Z,98052.81
2023-03-26T03:53:09.065Z,98053.88
2023-03-26T03:55:38.270Z,98058.69
2023-03-26T03:58:06.111Z,98053.28
2023-03-26T04:00:34.323Z,98045.22
2023-03-26T04:03:33.608Z,98039.84
2023-03-26T04:06:07.029Z,98038.81
2023-03-26T04:08:34.860Z,98022.66
2023-03-26T04:11:01.830Z,98017.28
2023-03-26T04:13:34.593Z,98002.16
2023-03-26T04:16:21.135Z,97994.91
2023-03-26T04:18:49.418Z,97987.91
2023-03-26T04:21:16.283Z,97970.94
2023-03-26T04:23:45.579Z,97972.84
2023-03-26T04:26:32.770Z,97964.19
2023-03-26T04:29:11.860Z,97951.56
2023-03-26T04:31:40.381Z,97945.94
2023-03-26T04:34:14.805Z,97941.34
2023-03-26T04:36:54.381Z,97937.56
2023-03-26T04:39:29.314Z,97918.44
2023-03-26T04:42:20.397Z,97914.91
2023-03-26T04:45:05.812Z,97913.06
2023-03-26T04:47:37.130Z,97904.44
2023-03-26T04:50:06.598Z,97899.06
2023-03-26T04:52:34.484Z,97899.84
2023-03-26T04:55:23.155Z,97889.09
2023-03-26T04:58:00.304Z,97880.22
2023-03-26T05:00:47.500Z,97867.00
2023-03-26T05:03:16.564Z,97872.16
2023-03-26T05:05:43.972Z,97861.63
2023-03-26T05:08:10.930Z,97856.78
2023-03-26T05:10:38.150Z,97844.41
2023-03-26T05:13:11.458Z,97834.72
2023-03-26T05:15:40.740Z,97833.91
2023-03-26T05:18:21.197Z,97827.53
2023-03-26T05:20:52.067Z,97832.13
2023-03-26T05:23:19.180Z,97826.28
2023-03-26T05:25:52.733Z,97824.13
2023-03-26T05:28:25.478Z,97829.25
2023-03-26T05:30:56.518Z,97825.00
2023-03-26T05:33:27.233Z,97824.25
2023-03-26T05:36:02.939Z,97818.09
2023-03-26T05:38:31.958Z,97820.00
2023-03-26T05:41:00.061Z,97815.75
2023-03-26T05:43:27.120Z,97834.38
2023-03-26T05:46:09.246Z,97832.81
2023-03-26T05:48:38.224Z,97827.19
2023-03-26T05:51:06.558Z,97821.06
2023-03-26T05:53:33.798Z,97806.81
2023-03-26T05:56:19.127Z,97811.16
2023-03-26T05:59:06.907Z,97801.50
2023-03-26T06:01:54.767Z,97806.91
2023-03-26T06:04:58.013Z,97801.63
2023-03-26T06:07:27.045Z,97808.13
2023-03-26T06:10:18.466Z,97798.44
2023-03-26T06:12:46.600Z,97792.50
2023-03-26T06:15:13.613Z,97774.22
2023-03-26T06:17:48.463Z,97782.84
2023-03-26T06:20:41.182Z,97775.84
2023-03-26T06:23:22.876Z,97765.63
2023-03-26T06:26:05.693Z,97774.25
2023-03-26T06:28:49.582Z,97765.91
2023-03-26T06:31:45.551Z,97766.47
2023-03-26T06:34:25.968Z,97762.97
2023-03-26T06:36:54.783Z,97778.63
2023-03-26T06:39:22.446Z,97767.03
2023-03-26T06:42:12.220Z,97776.47
2023-03-26T06:44:50.370Z,97767.31
2023-03-26T06:47:36.169Z,97771.06
2023-03-26T06:50:12.276Z,97767.31
2023-03-26T06:53:00.976Z,97763.56
2023-03-26T06:55:50.959Z,97770.56
2023-03-26T06:58:38.065Z,97760.31
2023-03-26T07:01:23.172Z,97764.66
2023-03-26T07:04:08.642Z,97758.44
2023-03-26T07:06:53.923Z,97759.50
2023-03-26T07:09:41.131Z,97762.22
2023-03-26T07:12:27.011Z,97766.25
2023-03-26T07:15:20.292Z,97765.44
2023-03-26T07:18:19.137Z,97766.25
2023-03-26T07:20:47.418Z,97771.41
2023-03-26T07:23:20.001Z,97773.28
2023-03-26T07:26:22.218Z,97771.41
2023-03-26T07:29:18.068Z,97767.88
2023-03-26T07:32:17.194Z,97763.31
2023-03-26T07:35:12.445Z,97778.66
2023-03-26T07:38:27.917Z,97772.19
2023-03-26T07:41:35.501Z,97773.28
2023-03-26T07:44:39.420Z,97773.84
2023-03-26T07:47:41.712Z,97774.63
2023-03-26T07:50:18.307Z,97774.88
2023-03-26T07:52:59.109Z,97774.09
2023-03-26T07:55:52.501Z,97766.53
2023-03-26T07:59:06.716Z,97784.38
2023-03-26T08:02:14.491Z,97781.38
2023-03-26T08:05:19.686Z,97795.16
2023-03-26T08:08:17.406Z,97796.25
2023-03-26T08:11:10.596Z,97804.09
2023-03-26T08:13:58.299Z,97803.84
2023-03-26T08:16:34.087Z,97811.63
2023-03-26T08:19:08.386Z,97811.09
2023-03-26T08:21:42.376Z,97815.16
2023-03-26T08:24:17.021Z,97802.50
2023-03-26T08:26:51.919Z,97806.25
2023-03-26T08:29:29.389Z,97808.69
2023-03-26T08:31:57.977Z,97806.81
2023-03-26T08:34:24.744Z,97796.56
2023-03-26T08:36:51.711Z,97808.44
2023-03-26T08:39:19.856Z,97811.13
2023-03-26T08:42:19.325Z,97813.03
2023-03-26T08:45:15.527Z,97820.28
2023-03-26T08:48:21.121Z,97821.13
2023-03-26T08:51:27.888Z,97819.47
2023-03-26T08:54:39.035Z,97822.16
2023-03-26T08:57:38.522Z,97817.03
2023-03-26T09:00:31.881Z,97816.50
2023-03-26T09:03:31.004Z,97831.84
2023-03-26T09:06:25.451Z,97831.59
2023-03-26T09:09:20.550Z,97834.28
2023-03-26T09:12:11.535Z,97836.47
2023-03-26T09:15:14.067Z,97826.47
2023-03-26T09:18:16.993Z,97827.00
2023-03-26T09:21:34.316Z,97822.66
2023-03-26T09:24:35.517Z,97836.97
2023-03-26T09:27:27.552Z,97832.66
2023-03-26T09:30:30.701Z,97824.81
2023-03-26T09:33:19.279Z,97820.50
2023-03-26T09:35:53.688Z,97826.16
2023-03-26T09:38:43.728Z,97815.38
2023-03-26T09:41:17.792Z,97805.38
2023-03-26T09:43:59.348Z,97806.75
2023-03-26T09:46:34.521Z,97801.91
2023-03-26T09:49:17.415Z,97806.47
2023-03-26T09:52:03.324Z,97807.81
2023-03-26T09:54:54.958Z,97809.41
2023-03-26T09:57:53.920Z,97801.34
2023-03-26T10:00:29.152Z,97812.63
2023-03-26T10:03:15.665Z,97803.50
2023-03-26T10:05:54.834Z,97811.59
2023-03-26T10:08:49.149Z,97811.84
2023-03-26T10:11:24.000Z,97819.66
2023-03-26T10:14:17.763Z,97828.56
2023-03-26T10:16:55.687Z,97829.09
2023-03-26T10:19:35.379Z,97822.00
2023-03-26T10:22:16.057Z,97814.88
2023-03-26T10:25:00.450Z,97825.50
2023-03-26T10:27:41.283Z,97831.59
2023-03-26T10:30:37.835Z,97829.38
2023-03-26T10:33:17.597Z,97823.94
2023-03-26T10:35:59.876Z,97819.53
2023-03-26T10:38:40.688Z,97833.47
2023-03-26T10:41:16.892Z,97820.97
2023-03-26T10:44:07.872Z,97826.88
2023-03-26T10:47:08.157Z,97826.28
2023-03-26T10:50:02.944Z,97835.88
2023-03-26T10:52:34.734Z,97836.97
2023-03-26T10:55:12.112Z,97835.25
2023-03-26T10:57:43.660Z,97822.31
2023-03-26T11:00:17.774Z,97822.38
2023-03-26T11:02:58.983Z,97826.41
2023-03-26T11:05:46.365Z,97816.38
2023-03-26T11:08:21.397Z,97813.69
2023-03-26T11:11:05.863Z,97819.56
2023-03-26T11:13:46.113Z,97807.63
2023-03-26T11:16:19.677Z,97810.16
2023-03-26T11:18:58.056Z,97812.53
2023-03-26T11:24:17.270Z,97817.78
2023-03-26T11:26:52.880Z,97813.97
2023-03-26T11:29:33.588Z,97819.91
2023-03-26T11:32:06.186Z,97813.47
2023-03-26T11:34:38.767Z,97818.03
2023-03-26T11:37:15.177Z,97815.34
2023-03-26T11:39:49.595Z,97829.66
2023-03-26T11:42:19.384Z,97837.47
2023-03-26T11:44:51.340Z,97846.91
2023-03-26T11:47:23.482Z,97870.38
2023-03-26T11:49:53.358Z,97879.84
2023-03-26T11:52:20.616Z,97888.16
2023-03-26T11:54:50.492Z,97907.66
2023-03-26T11:57:22.450Z,97907.91
2023-03-26T11:59:57.544Z,97910.00
2023-03-26T12:02:29.435Z,97891.47
2023-03-26T12:05:13.619Z,97890.97
2023-03-26T12:07:46.872Z,97889.91
2023-03-26T12:10:31.406Z,97887.78
2023-03-26T12:13:01.303Z,97889.41
2023-03-26T12:15:31.486Z,97898.28
2023-03-26T12:18:17.603Z,97912.56
2023-03-26T12:20:45.903Z,97914.59
2023-03-26T12:23:35.527Z,97912.34
2023-03-26T12:26:14.366Z,97903.72
2023-03-26T12:28:45.672Z,97902.09
2023-03-26T12:31:19.146Z,97899.28
2023-03-26T12:34:03.031Z,97890.81
2023-03-26T12:36:35.920Z,97884.69
2023-03-26T12:40:06.919Z,97890.13
2023-03-26T12:42:26.710Z,97890.22
2023-03-26T12:45:14.470Z,97874.88
2023-03-26T12:47:58.313Z,97879.19
2023-03-26T12:50:35.567Z,97875.22
2023-03-26T12:53:27.581Z,97871.47
2023-03-26T12:56:01.649Z,97860.69
2023-03-26T12:58:44.053Z,97863.38
2023-03-26T13:01:22.828Z,97867.16
2023-03-26T13:04:08.383Z,97860.69
2023-03-26T13:06:59.872Z,97853.44
2023-03-26T13:09:43.378Z,97853.44
2023-03-26T13:12:25.773Z,97855.31
2023-03-26T13:15:13.710Z,97860.69
2023-03-26T13:17:50.985Z,97860.69
2023-03-26T13:20:27.241Z,97859.09
2023-03-26T13:23:02.828Z,97864.47
2023-03-26T13:25:40.772Z,97867.16
2023-03-26T13:28:21.567Z,97876.50
2023-03-26T13:30:57.213Z,97868.44
2023-03-26T13:33:35.900Z,97854.69
2023-03-26T13:36:22.452Z,97849.31
2023-03-26T13:39:04.911Z,97846.63
2023-03-26T13:41:47.333Z,97842.84
2023-03-26T13:44:24.111Z,97834.78
2023-03-26T13:46:55.228Z,97830.47
2023-03-26T13:49:29.342Z,97845.78
2023-03-26T13:52:01.858Z,97836.09
2023-03-26T13:54:32.554Z,97828.03
2023-03-26T13:57:07.892Z,97813.47
2023-03-26T13:59:40.309Z,97821.22
2023-03-26T14:02:12.134Z,97808.91
2023-03-26T14:04:43.905Z,97813.38
2023-03-26T14:07:18.108Z,97814.53
2023-03-26T14:09:51.318Z,97820.53
2023-03-26T14:12:38.559Z,97827.34
2023-03-26T14:15:06.937Z,97828.47
2023-03-26T14:17:39.906Z,97830.38
2023-03-26T14:20:58.702Z,97818.88
2023-03-26T14:23:58.626Z,97818.13
2023-03-26T14:26:51.929Z,97822.50
2023-03-26T14:29:30.507Z,97821.50
2023-03-26T14:32:24.492Z,97822.63
2023-03-26T14:35:14.026Z,97829.13
2023-03-26T14:38:08.033Z,97835.63
2023-03-26T14:40:57.266Z,97838.59
2023-03-26T14:43:56.690Z,97831.91
2023-03-26T14:46:40.915Z,97829.78
2023-03-26T14:49:47.218Z,97833.59
2023-03-26T14:52:20.389Z,97821.50
2023-03-26T14:54:53.321Z,97813.94
2023-03-26T14:57:58.454Z,97810.75
2023-03-26T15:01:04.251Z,97798.91
2023-03-26T15:04:05.100Z,97792.19
2023-03-26T15:07:07.827Z,97795.69
2023-03-26T15:10:05.988Z,97791.69
2023-03-26T15:12:48.501Z,97787.13
2023-03-26T15:16:00.562Z,97786.56
2023-03-26T15:19:00.265Z,97789.56
2023-03-26T15:22:00.991Z,97801.94
2023-03-26T15:24:52.868Z,97810.03
2023-03-26T15:27:50.299Z,97825.09
2023-03-26T15:30:47.697Z,97837.50
2023-03-26T15:33:54.226Z,97842.88
2023-03-26T15:37:12.903Z,97849.34
2023-03-26T15:40:27.567Z,97848.81
2023-03-26T15:43:06.733Z,97847.75
2023-03-26T15:45:38.518Z,97846.66
2023-03-26T15:48:39.114Z,97826.72
2023-03-26T15:51:32.113Z,97809.22
2023-03-26T15:54:23.215Z,97828.38
2023-03-26T15:57:12.409Z,97840.25
2023-03-26T15:59:52.725Z,97837.03
2023-03-26T16:02:28.498Z,97841.91
2023-03-26T16:05:03.237Z,97843.53
2023-03-26T16:07:41.920Z,97844.59
2023-03-26T16:10:28.313Z,97850.56
2023-03-26T16:13:26.682Z,97847.03
2023-03-26T16:15:58.028Z,97845.19
2023-03-26T16:18:34.500Z,97838.97
2023-03-26T16:21:47.114Z,97838.13
2023-03-26T16:24:24.421Z,97845.44
2023-03-26T16:27:30.024Z,97850.00
2023-03-26T16:30:28.998Z,97851.88
2023-03-26T16:33:09.048Z,97853.25
2023-03-26T16:35:42.234Z,97854.88
2023-03-26T16:38:14.823Z,97865.41
2023-03-26T16:41:00.226Z,97864.31
2023-03-26T16:43:47.681Z,97864.31
2023-03-26T16:46:38.483Z,97869.72
2023-03-26T16:49:16.667Z,97866.19
2023-03-26T16:51:58.158Z,97870.53
2023-03-26T16:54:28.133Z,97864.31
2023-03-26T16:57:02.104Z,97871.84
2023-03-26T17:00:05.420Z,97875.94
2023-03-26T17:02:43.725Z,97878.38
2023-03-26T17:05:20.022Z,97876.25
2023-03-26T17:08:01.297Z,97880.56
2023-03-26T17:10:36.004Z,97873.84
2023-03-26T17:13:07.568Z,97871.13
2023-03-26T17:15:43.516Z,97869.53
2023-03-26T17:18:43.457Z,97870.84
2023-03-26T17:21:18.339Z,97876.50
2023-03-26T17:24:04.029Z,97883.75
2023-03-26T17:26:48.434Z,97882.97
2023-03-26T17:29:28.632Z,97885.66
2023-03-26T17:32:04.630Z,97881.88
2023-03-26T17:34:46.544Z,97874.63
2023-03-26T17:37:44.836Z,97872.19
2023-03-26T17:40:49.551Z,97881.06
2023-03-26T17:43:42.591Z,97877.56
2023-03-26T17:46:21.104Z,97881.31
2023-03-26T17:48:56.959Z,97891.03
2023-03-26T17:51:38.441Z,97885.66
2023-03-26T17:54:08.256Z,97888.88
2023-03-26T17:56:37.827Z,97893.75
2023-03-26T17:59:11.507Z,97899.13
2023-03-26T18:01:42.229Z,97896.66
2023-03-26T18:04:18.729Z,97906.13
2023-03-26T18:07:04.097Z,97908.00
2023-03-26T18:09:46.912Z,97912.34
2023-03-26T18:12:48.380Z,97919.59
2023-03-26T18:15:30.702Z,97916.34
2023-03-26T18:18:09.621Z,97924.41
2023-03-26T18:20:37.825Z,97924.41
2023-03-26T18:23:10.762Z,97925.47
2023-03-26T18:25:40.983Z,97937.31
2023-03-26T18:28:12.163Z,97938.16
2023-03-26T18:30:48.839Z,97937.88
2023-03-26T18:33:15.890Z,97950.31
2023-03-26T18:35:45.054Z,97949.25
2023-03-26T18:38:16.972Z,97946.56
2023-03-26T18:40:46.337Z,97953.56
2023-03-26T18:43:25.413Z,97955.47
2023-03-26T18:45:59.479Z,97950.06
2023-03-26T18:48:28.739Z,97958.16
2023-03-26T18:50:59.877Z,97953.56
2023-03-26T18:53:37.583Z,97962.22
2023-03-26T18:56:19.127Z,97959.53
2023-03-26T18:58:50.464Z,97965.69
2023-03-26T19:01:25.533Z,97948.16
2023-03-26T19:03:54.660Z,97941.16
2023-03-26T19:06:23.339Z,97940.91
2023-03-26T19:08:51.145Z,97942.53
2023-03-26T19:11:19.495Z,97954.13
2023-03-26T19:13:58.236Z,97956.81
2023-03-26T19:16:28.167Z,97960.06
2023-03-26T19:18:58.452Z,97965.69
2023-03-26T19:21:25.508Z,97958.44
2023-03-26T19:23:53.292Z,97964.66
2023-03-26T19:26:22.242Z,97964.91
2023-03-26T19:28:53.271Z,97968.41
2023-03-26T19:31:24.476Z,97973.53
2023-03-26T19:33:57.159Z,97974.63
2023-03-26T19:36:29.605Z,97974.88
2023-03-26T19:39:10.212Z,97974.06
2023-03-26T19:41:41.068Z,97975.94
2023-03-26T19:44:19.289Z,97985.09
2023-03-26T19:46:52.973Z,97983.69
2023-03-26T19:49:29.693Z,97987.69
2023-03-26T19:52:05.324Z,97987.13
2023-03-26T19:54:32.187Z,97983.06
2023-03-26T19:57:00.995Z,97986.28
2023-03-26T19:59:27.826Z,97979.81
2023-03-26T20:01:54.649Z,97983.56
2023-03-26T20:04:21.512Z,97985.72
2023-03-26T20:06:49.905Z,97986.75
2023-03-26T20:09:16.825Z,97995.69
2023-03-26T20:11:43.721Z,97998.63
2023-03-26T20:14:14.594Z,97995.38
2023-03-26T20:16:43.842Z,98001.81
2023-03-26T20:19:14.075Z,98009.88
2023-03-26T20:21:41.582Z,98012.03
2023-03-26T20:24:11.850Z,98023.59
2023-03-26T20:26:38.673Z,98017.41
2023-03-26T20:29:06.085Z,98015.53
2023-03-26T20:31:34.594Z,98022.22
2023-03-26T20:34:01.482Z,98020.13
2023-03-26T20:36:33.626Z,98030.06
2023-03-26T20:39:05.636Z,98033.59
2023-03-26T20:41:34.078Z,98037.34
2023-03-26T20:44:03.597Z,98035.69
2023-03-26T20:46:31.872Z,98034.09
2023-03-26T20:49:00.310Z,98046.19
2023-03-26T20:51:28.556Z,98047.50
2023-03-26T20:53:56.582Z,98047.75
2023-03-26T20:56:23.477Z,98046.38
2023-03-26T20:59:03.674Z,98045.25
2023-03-26T21:01:35.084Z,98050.31
2023-03-26T21:04:04.469Z,98050.00
2023-03-26T21:06:31.815Z,98053.25
2023-03-26T21:08:59.169Z,98060.75
2023-03-26T21:11:34.460Z,98076.03
2023-03-26T21:14:06.735Z,98078.91
2023-03-26T21:16:34.466Z,98075.97
2023-03-26T21:19:03.399Z,98082.19
2023-03-26T21:21:46.420Z,98091.06
2023-03-26T21:24:24.769Z,98097.50
2023-03-26T21:26:59.208Z,98097.69
2023-03-26T21:29:27.389Z,98099.25
2023-03-26T21:31:55.366Z,98098.66
2023-03-26T21:34:24.318Z,98105.69
2023-03-26T21:36:51.820Z,98110.50
2023-03-26T21:39:19.178Z,98114.50
2023-03-26T21:41:48.970Z,98129.22
2023-03-26T21:44:33.099Z,98128.66
2023-03-26T21:47:00.713Z,98128.66
2023-03-26T21:49:29.813Z,98138.03
2023-03-26T21:51:57.200Z,98136.16
2023-03-26T21:54:26.577Z,98142.63
2023-03-26T21:57:06.691Z,98149.88
2023-03-26T21:59:42.716Z,98152.25
2023-03-26T22:02:19.585Z,98150.94
2023-03-26T22:04:52.287Z,98162.00
2023-03-26T22:07:23.122Z,98170.91
2023-03-26T22:09:50.418Z,98158.78
2023-03-26T22:12:17.733Z,98157.13
2023-03-26T22:14:44.931Z,98163.63
2023-03-26T22:17:11.720Z,98173.00
2023-03-26T22:19:38.593Z,98176.31
2023-03-26T22:22:06.781Z,98182.81
2023-03-26T22:24:34.369Z,98185.88
2023-03-26T22:27:01.274Z,98195.31
2023-03-26T22:29:28.135Z,98190.84
2023-03-26T22:31:54.978Z,98201.91
2023-03-26T22:34:23.173Z,98202.50
2023-03-26T22:36:50.008Z,98207.66
2023-03-26T22:39:18.302Z,98208.78
2023-03-26T22:41:45.213Z,98219.28
2023-03-26T22:44:19.618Z,98230.41
2023-03-26T22:46:49.144Z,98239.28
2023-03-26T22:49:16.550Z,98248.19
2023-03-26T22:51:43.652Z,98257.09
2023-03-26T22:54:10.712Z,98260.81
2023-03-26T22:56:39.058Z,98260.75
2023-03-26T22:59:06.585Z,98266.72
2023-03-26T23:01:34.457Z,98265.66
2023-03-26T23:04:01.549Z,98273.72
2023-03-26T23:06:28.760Z,98282.88
2023-03-26T23:08:57.085Z,98292.00
2023-03-26T23:11:24.119Z,98290.38
2023-03-26T23:13:52.596Z,98296.59
2023-03-26T23:16:21.591Z,98307.59
2023-03-26T23:18:48.716Z,98310.28
2023-03-26T23:21:18.534Z,98315.09
2023-03-26T23:23:46.222Z,98321.53
2023-03-26T23:26:14.488Z,98329.63
2023-03-26T23:28:41.411Z,98322.03
2023-03-26T23:31:12.088Z,98322.84
2023-03-26T23:33:45.667Z,98333.06
2023-03-26T23:36:13.878Z,98332.25
2023-03-26T23:38:44.214Z,98340.31
2023-03-26T23:41:14.982Z,98354.84
2023-03-26T23:43:53.919Z,98357.53
2023-03-26T23:46:24.745Z,98368.56
2023-03-26T23:48:52.248Z,98370.41
2023-03-26T23:51:24.085Z,98376.63
2023-03-26T23:53:51.284Z,98374.41
2023-03-26T23:56:18.073Z,98381.94
2023-03-26T23:58:45.129Z,98385.91
